Time;durP1;ratioP1;P1;durP2;ratioP2;P2;SDS_P1;SDS_P2;PMS_P1;PMS_P2;Temp;Humidity;BMP_temperature;BMP_pressure;BME280_temperature;BME280_humidity;BME280_pressure;Samples;Min_cycle;Max_cycle;Signal;HPM_P1;HPM_P2
2021/03/21 00:01:44;;;;;;;4.80;2.50;;;3.00;43.60;;;3.32;39.29;98256.75;5051290;28;20057;-34
2021/03/21 00:04:13;;;;;;;5.43;2.87;;;2.90;44.10;;;3.31;39.26;98262.94;5049326;28;20118;-34
2021/03/21 00:06:41;;;;;;;5.07;3.13;;;2.90;44.00;;;3.33;39.62;98265.47;5065742;28;20056;-34
2021/03/21 00:09:11;;;;;;;4.47;2.73;;;2.90;44.10;;;3.33;39.57;98276.00;5065431;28;20066;-34
2021/03/21 00:11:39;;;;;;;6.50;3.07;;;2.90;44.30;;;3.32;39.35;98274.34;5067916;28;20047;-33
2021/03/21 00:14:07;;;;;;;4.37;2.70;;;3.00;44.30;;;3.33;39.48;98266.34;5067126;28;20049;-34
2021/03/21 00:16:36;;;;;;;5.13;3.17;;;3.00;44.40;;;3.32;39.95;98263.81;5049395;28;20052;-34
2021/03/21 00:19:08;;;;;;;8.60;3.47;;;3.00;44.50;;;3.31;39.50;98268.22;5067231;28;20066;-34
2021/03/21 00:21:36;;;;;;;8.10;2.60;;;3.00;44.50;;;3.32;39.77;98266.44;5067507;28;20056;-33
2021/03/21 00:24:06;;;;;;;5.73;3.27;;;3.00;44.90;;;3.34;39.86;98267.19;5066870;28;20337;-34
2021/03/21 00:26:35;;;;;;;6.03;3.17;;;3.00;45.10;;;3.34;39.84;98264.56;5066356;28;20350;-34
2021/03/21 00:29:06;;;;;;;5.23;2.70;;;3.00;45.10;;;3.28;40.27;98259.69;5066144;28;20056;-33
2021/03/21 00:31:34;;;;;;;5.80;3.47;;;2.90;45.00;;;3.26;40.22;98267.69;5066320;28;20053;-33
2021/03/21 00:34:03;;;;;;;3.63;2.57;;;2.80;45.40;;;3.28;40.21;98260.53;5047433;28;20053;-33
2021/03/21 00:36:30;;;;;;;4.43;2.90;;;2.90;45.30;;;3.29;40.71;98261.38;5065634;28;20054;-34
2021/03/21 00:38:58;;;;;;;5.80;2.80;;;2.90;45.50;;;3.28;40.56;98255.25;5048814;28;20058;-34
2021/03/21 00:41:28;;;;;;;3.93;2.30;;;2.90;45.40;;;3.29;40.17;98259.56;5064704;28;20065;-34
2021/03/21 00:43:57;;;;;;;4.03;2.70;;;2.90;45.80;;;3.32;40.58;98255.91;5068943;28;20075;-34
2021/03/21 00:46:26;;;;;;;3.93;2.73;;;3.00;45.70;;;3.36;40.51;98252.13;5050032;28;20612;-33
2021/03/21 00:48:54;;;;;;;5.57;3.77;;;3.00;45.70;;;3.39;40.48;98249.28;5066063;28;20049;-34
2021/03/21 00:51:21;;;;;;;7.03;2.77;;;3.10;45.90;;;3.39;40.66;98248.44;5066737;28;20058;-34
2021/03/21 00:53:49;;;;;;;4.97;2.80;;;3.00;45.80;;;3.39;40.63;98245.81;5067632;28;20049;-34
2021/03/21 00:56:36;;;;;;;3.40;2.50;;;3.00;46.00;;;3.40;40.93;98242.25;5065750;28;20051;-34
2021/03/21 00:59:05;;;;;;;4.40;2.43;;;3.00;45.90;;;3.35;40.75;98230.25;5048442;28;20040;-34
2021/03/21 01:01:33;;;;;;;6.27;3.13;;;3.00;46.40;;;3.36;41.23;98233.72;5055458;28;20039;-34
2021/03/21 01:04:03;;;;;;;3.90;2.50;;;3.00;46.60;;;3.37;40.83;98234.53;5077866;28;20052;-34
2021/03/21 01:06:31;;;;;;;4.53;2.63;;;3.00;46.80;;;3.36;41.43;98231.06;5084955;28;20052;-33
2021/03/21 01:09:08;;;;;;;5.40;2.40;;;3.00;46.90;;;3.36;41.02;98233.72;5085967;28;20050;-34
2021/03/21 01:11:38;;;;;;;8.03;3.00;;;3.00;47.00;;;3.35;41.41;98227.59;5086748;28;20360;-34
2021/03/21 01:14:08;;;;;;;4.80;2.77;;;3.00;47.00;;;3.37;41.31;98221.38;5086010;28;20384;-33
2021/03/21 01:16:42;;;;;;;6.13;2.93;;;3.00;47.40;;;3.38;41.70;98218.66;5069091;28;20044;-33
2021/03/21 01:19:19;;;;;;;4.68;2.78;;;3.00;47.30;;;3.39;41.48;98219.50;5086515;28;20058;-34
2021/03/21 01:21:48;;;;;;;5.47;2.63;;;3.00;47.00;;;3.40;41.52;98205.41;5084420;28;20360;-34
2021/03/21 01:24:20;;;;;;;5.80;2.30;;;3.00;47.80;;;3.39;41.48;98209.78;5086539;28;20337;-34
2021/03/21 01:26:48;;;;;;;4.67;2.60;;;3.00;46.90;;;3.39;41.36;98203.69;5085694;28;20051;-34
2021/03/21 01:29:16;;;;;;;3.53;1.83;;;3.00;47.10;;;3.38;41.30;98205.50;5086610;28;20199;-34
2021/03/21 01:31:44;;;;;;;5.00;2.40;;;3.00;47.10;;;3.38;41.19;98192.34;5084936;28;20059;-34
2021/03/21 01:34:13;;;;;;;3.30;2.07;;;3.00;47.10;;;3.37;41.14;98192.44;5083836;28;20470;-34
2021/03/21 01:36:41;;;;;;;3.50;2.13;;;3.00;47.20;;;3.36;41.45;98194.22;5067918;28;20048;-34
2021/03/21 01:39:21;;;;;;;4.50;1.97;;;3.00;47.00;;;3.36;41.56;98188.97;5086818;28;20066;-34
2021/03/21 01:42:03;;;;;;;3.17;1.93;;;3.00;47.20;;;3.38;41.54;98194.13;5067323;28;20373;-34
2021/03/21 01:44:31;;;;;;;5.60;2.23;;;3.10;47.30;;;3.38;41.59;98186.22;5086207;28;20056;-34
2021/03/21 01:47:05;;;;;;;3.67;2.40;;;3.00;46.80;;;3.39;41.26;98174.75;5085879;28;20052;-34
2021/03/21 01:49:38;;;;;;;3.47;2.17;;;3.00;47.00;;;3.40;41.20;98177.28;5084834;28;20050;-34
2021/03/21 01:52:07;;;;;;;3.57;2.00;;;3.00;46.50;;;3.41;41.42;98176.31;5068175;28;20060;-34
2021/03/21 01:54:35;;;;;;;2.67;2.03;;;3.10;46.60;;;3.42;40.91;98167.50;5067847;28;20047;-34
2021/03/21 01:57:04;;;;;;;2.93;1.90;;;3.10;46.10;;;3.44;41.00;98177.91;5086792;28;20044;-34
2021/03/21 01:59:35;;;;;;;5.17;1.93;;;3.10;46.40;;;3.45;41.48;98172.56;5084151;28;20058;-33
2021/03/21 02:02:04;;;;;;;3.27;2.10;;;3.10;46.60;;;3.48;41.29;98168.88;5085932;28;20047;-34
2021/03/21 02:04:32;;;;;;;4.33;1.90;;;3.10;46.60;;;3.48;41.19;98166.22;5068470;28;20058;-34
2021/03/21 02:07:31;;;;;;;3.23;2.10;;;3.20;46.30;;;3.48;41.17;98164.44;5084748;28;20055;-33
2021/03/21 02:10:34;;;;;;;2.40;1.73;;;3.20;46.00;;;3.48;41.41;98169.69;5084601;28;20253;-34
2021/03/21 02:13:16;;;;;;;4.67;2.20;;;3.10;46.50;;;3.48;41.09;98164.44;5085796;28;20059;-34
2021/03/21 02:16:12;;;;;;;3.23;2.10;;;3.10;46.50;;;3.46;41.33;98160.22;5069401;28;20048;-34
2021/03/21 02:19:09;;;;;;;5.03;2.03;;;3.10;47.10;;;3.42;41.75;98159.59;5083881;28;20050;-34
2021/03/21 02:21:53;;;;;;;3.00;2.00;;;3.00;46.90;;;3.39;41.68;98156.31;5084088;28;20077;-34
2021/03/21 02:25:11;;;;;;;3.67;2.10;;;3.00;48.30;;;3.39;42.06;98159.78;5074050;28;20062;-33
2021/03/21 02:28:22;;;;;;;2.97;2.03;;;3.00;47.90;;;3.37;41.75;98160.84;4953408;28;20353;-34
2021/03/21 02:30:55;;;;;;;3.40;1.77;;;3.00;48.00;;;3.35;42.12;98150.41;4954382;28;20066;-34
2021/03/21 02:33:33;;;;;;;4.15;2.33;;;2.90;48.30;;;3.35;42.39;98150.41;5030072;28;20044;-33
2021/03/21 02:36:16;;;;;;;3.17;2.10;;;2.90;48.30;;;3.34;42.28;98149.56;5071039;28;20234;-33
2021/03/21 02:39:18;;;;;;;5.13;2.37;;;3.00;48.90;;;3.38;42.39;98144.97;5053584;28;20078;-34
2021/03/21 02:42:01;;;;;;;5.00;1.93;;;3.00;48.80;;;3.36;42.46;98144.22;5051132;28;20060;-34
2021/03/21 02:44:38;;;;;;;2.43;1.90;;;3.00;48.70;;;3.36;42.48;98144.22;5066952;28;20063;-33
2021/03/21 02:47:17;;;;;;;4.40;1.90;;;3.00;49.00;;;3.37;42.68;98131.91;5071063;28;20044;-34
2021/03/21 02:49:49;;;;;;;3.13;1.90;;;3.00;49.00;;;3.36;42.53;98125.78;5073732;28;20040;-33
2021/03/21 02:52:50;;;;;;;4.07;2.10;;;3.00;49.20;;;3.35;42.64;98121.47;5072433;28;20436;-33
2021/03/21 02:55:35;;;;;;;3.23;2.20;;;3.00;49.40;;;3.34;42.63;98118.00;5073870;28;20052;-33
2021/03/21 02:58:24;;;;;;;3.10;2.20;;;3.00;49.60;;;3.34;43.01;98115.38;5073089;28;20062;-34
2021/03/21 03:01:02;;;;;;;3.53;2.40;;;3.00;49.50;;;3.32;42.93;98111.16;5090407;28;20063;-34
2021/03/21 03:03:31;;;;;;;3.77;2.00;;;2.90;49.80;;;3.32;42.92;98103.28;5072087;28;20064;-33
2021/03/21 03:06:09;;;;;;;3.10;1.83;;;2.90;49.60;;;3.31;42.83;98105.03;5090477;28;20266;-34
2021/03/21 03:09:19;;;;;;;4.30;2.10;;;2.90;49.60;;;3.29;42.91;98111.34;5091062;28;20595;-34
2021/03/21 03:12:07;;;;;;;3.90;2.50;;;2.90;50.00;;;3.30;43.50;98102.53;5076383;28;20048;-33
2021/03/21 03:14:39;;;;;;;3.20;2.00;;;2.90;49.70;;;3.28;43.38;98094.72;5074454;28;20245;-35
2021/03/21 03:17:39;;;;;;;4.73;2.13;;;2.90;49.80;;;3.28;43.50;98089.47;5074447;28;20047;-33
2021/03/21 03:20:13;;;;;;;3.30;1.83;;;2.80;49.90;;;3.29;43.22;98087.66;5072119;28;20052;-33
2021/03/21 03:23:00;;;;;;;3.67;1.93;;;2.90;49.90;;;3.27;43.36;98084.31;5090913;28;20267;-33
2021/03/21 03:25:54;;;;;;;3.23;2.07;;;2.80;50.00;;;3.27;43.50;98084.31;5090684;28;20376;-34
2021/03/21 03:28:58;;;;;;;4.55;1.83;;;2.80;49.90;;;3.28;43.21;98080.75;5093201;28;20052;-34
2021/03/21 03:31:39;;;;;;;3.13;1.70;;;2.90;50.20;;;3.29;43.10;98066.63;5074735;28;20052;-34
2021/03/21 03:34:09;;;;;;;4.20;2.83;;;2.90;49.90;;;3.29;43.38;98070.09;5074097;28;20056;-33
2021/03/21 03:36:37;;;;;;;3.73;2.20;;;2.90;49.70;;;3.33;43.68;98065.47;5091566;28;20245;-33
2021/03/21 03:39:05;;;;;;;4.50;2.10;;;3.00;49.80;;;3.34;43.25;98068.00;5091274;28;20052;-33
2021/03/21 03:41:52;;;;;;;4.57;2.20;;;3.00;49.70;;;3.34;43.57;98070.63;5090941;28;20372;-33
2021/03/21 03:45:02;;;;;;;4.30;2.00;;;3.00;49.70;;;3.37;43.20;98079.25;5075908;28;20362;-33
2021/03/21 03:48:02;;;;;;;4.50;2.40;;;3.10;49.90;;;3.38;43.53;98080.94;5072565;28;20244;-33
2021/03/21 03:50:46;;;;;;;2.30;1.70;;;3.10;49.60;;;3.34;43.37;98083.78;5074719;28;20266;-33
2021/03/21 03:53:40;;;;;;;4.35;2.20;;;3.00;49.60;;;3.28;43.18;98089.47;5091014;28;20052;-33
2021/03/21 03:56:24;;;;;;;4.65;2.13;;;2.80;49.90;;;3.25;43.14;98102.00;5089051;28;20055;-33
2021/03/21 03:59:10;;;;;;;3.65;2.10;;;2.80;50.00;;;3.19;43.34;98090.09;5071096;28;20059;-33
2021/03/21 04:02:00;;;;;;;3.93;2.33;;;2.70;50.40;;;3.17;43.92;98084.09;5087729;28;20048;-33
2021/03/21 04:04:58;;;;;;;3.20;1.80;;;2.70;50.40;;;3.19;43.31;98091.88;5071424;28;20055;-33
2021/03/21 04:07:39;;;;;;;3.67;1.93;;;2.80;50.40;;;3.15;43.98;98078.94;5069658;28;20190;-33
2021/03/21 04:10:19;;;;;;;4.20;2.30;;;2.80;50.80;;;3.15;43.98;98078.09;5069289;28;20051;-34
2021/03/21 04:13:27;;;;;;;3.77;1.97;;;2.80;51.00;;;3.12;44.30;98068.63;5070266;28;20050;-33
2021/03/21 04:15:57;;;;;;;5.73;2.30;;;2.70;51.40;;;3.10;44.57;98062.63;5025748;28;20050;-34
2021/03/21 04:18:44;;;;;;;5.97;2.73;;;2.70;51.50;;;3.09;44.58;98068.00;5069657;28;20052;-34
2021/03/21 04:21:28;;;;;;;5.40;2.60;;;2.70;52.70;;;3.05;44.66;98067.34;5070951;28;20070;-33
2021/03/21 04:24:19;;;;;;;4.85;2.55;;;2.60;51.70;;;3.04;45.26;98049.88;5088314;28;20047;-33
2021/03/21 04:26:59;;;;;;;5.73;2.50;;;2.60;52.50;;;3.08;44.63;98053.13;5070266;28;20044;-34
2021/03/21 04:29:59;;;;;;;4.07;2.63;;;2.70;52.10;;;3.08;45.10;98051.38;5069433;28;20046;-34
2021/03/21 04:32:50;;;;;;;7.00;4.63;;;2.70;52.10;;;3.10;44.85;98045.97;5077067;28;20048;-34
2021/03/21 04:35:39;;;;;;;4.27;2.43;;;2.70;52.00;;;3.13;44.77;98037.88;5069978;28;20052;-33
2021/03/21 04:38:27;;;;;;;14.40;5.43;;;2.80;51.30;;;3.17;44.81;98038.53;5085169;28;20043;-33
2021/03/21 04:40:55;;;;;;;7.93;4.17;;;2.80;51.00;;;3.20;44.71;98033.91;5071943;28;20051;-34
2021/03/21 04:43:36;;;;;;;4.87;2.97;;;2.90;50.90;;;3.25;44.33;98030.94;5069763;28;20182;-34
2021/03/21 04:46:12;;;;;;;5.13;2.83;;;2.90;50.40;;;3.26;43.92;98022.13;5069464;28;20081;-34
2021/03/21 04:48:40;;;;;;;3.87;2.20;;;3.00;49.90;;;3.26;43.68;98020.31;5069572;28;20056;-33
2021/03/21 04:51:19;;;;;;;5.77;2.97;;;3.00;49.90;;;3.28;43.21;98013.16;5086879;28;20052;-34
2021/03/21 04:54:23;;;;;;;9.60;3.90;;;3.00;48.60;;;3.30;43.60;98013.88;5050376;28;20054;-34
2021/03/21 04:57:12;;;;;;;6.28;4.20;;;3.00;48.50;;;3.31;43.23;98012.09;5085140;28;20056;-33
2021/03/21 04:59:40;;;;;;;4.00;2.60;;;3.00;48.60;;;3.34;43.49;98017.97;5070323;28;20044;-34
2021/03/21 05:02:30;;;;;;;5.80;3.13;;;3.10;48.90;;;3.38;43.23;98023.03;5066801;28;20130;-34
2021/03/21 05:05:42;;;;;;;6.13;3.10;;;3.10;48.70;;;3.38;42.65;98028.31;5067636;28;20276;-33
2021/03/21 05:08:26;;;;;;;5.33;3.00;;;3.10;47.90;;;3.37;42.73;98030.06;5068568;28;20187;-34
2021/03/21 05:11:02;;;;;;;5.00;2.23;;;3.00;46.90;;;3.29;42.53;98035.03;5086853;28;20056;-33
2021/03/21 05:13:42;;;;;;;4.47;1.97;;;3.00;48.30;;;3.16;42.37;98037.69;5052638;28;20079;-34
2021/03/21 05:16:25;;;;;;;19.73;8.30;;;2.80;46.90;;;3.17;42.39;98038.53;5067697;28;20073;-34
2021/03/21 05:19:17;;;;;;;4.73;2.33;;;2.80;47.50;;;3.14;42.23;98042.19;5070188;28;20051;-34
2021/03/21 05:22:07;;;;;;;5.27;2.73;;;2.80;47.50;;;3.17;42.72;98044.63;5069522;28;20055;-33
2021/03/21 05:25:01;;;;;;;8.27;3.47;;;2.90;47.80;;;3.12;42.70;98046.72;5069631;28;20064;-34
2021/03/21 05:27:43;;;;;;;8.10;4.03;;;2.80;48.70;;;3.11;43.37;98042.41;5070987;28;20438;-34
2021/03/21 05:30:40;;;;;;;9.60;4.97;;;2.80;48.90;;;3.14;43.67;98043.06;5069087;28;20364;-33
2021/03/21 05:33:08;;;;;;;7.13;4.03;;;2.60;49.40;;;3.17;43.84;98039.34;5007214;28;20058;-37
2021/03/21 05:35:39;;;;;;;4.50;2.77;;;2.80;49.70;;;3.12;43.34;98041.44;4987834;28;20060;-37
2021/03/21 05:38:45;;;;;;;3.63;2.30;;;2.80;49.60;;;3.11;43.74;98040.63;5005656;28;20066;-38
2021/03/21 05:41:50;;;;;;;4.33;2.60;;;2.80;49.80;;;3.20;44.01;98041.78;5005715;28;20049;-37
2021/03/21 05:45:05;;;;;;;3.58;2.10;;;2.90;50.20;;;3.23;43.65;98035.47;5005799;28;20177;-37
2021/03/21 05:48:16;;;;;;;3.63;1.80;;;3.00;50.00;;;3.26;44.37;98040.53;4981171;28;20067;-38
2021/03/21 05:51:10;;;;;;;4.83;3.00;;;3.00;50.20;;;3.29;43.83;98027.97;4990794;28;20054;-37
2021/03/21 05:54:23;;;;;;;4.32;2.55;;;3.00;50.20;;;3.34;44.13;98014.53;5005204;28;20235;-37
2021/03/21 05:57:24;;;;;;;4.20;2.00;;;3.10;50.40;;;3.39;44.15;98014.19;5006243;28;20366;-37
2021/03/21 06:00:39;;;;;;;4.27;3.00;;;3.10;50.20;;;3.41;43.95;98004.41;5006280;28;20068;-37
2021/03/21 06:03:26;;;;;;;4.57;2.15;;;3.20;50.00;;;3.46;43.70;98007.56;5006520;28;20049;-37
2021/03/21 06:06:34;;;;;;;5.07;2.50;;;3.20;49.60;;;3.47;43.86;98002.19;4986667;28;20068;-37
2021/03/21 06:09:13;;;;;;;3.60;2.20;;;3.20;49.00;;;3.50;43.79;98001.13;5004395;28;20062;-38
2021/03/21 06:11:48;;;;;;;4.83;2.37;;;3.20;49.30;;;3.54;43.89;98006.06;5005434;28;20084;-37
2021/03/21 06:14:22;;;;;;;3.87;2.33;;;3.30;49.50;;;3.57;43.70;97991.84;4987386;28;20072;-37
2021/03/21 06:17:31;;;;;;;5.30;3.65;;;3.30;49.10;;;3.57;43.88;97997.13;5007175;28;20041;-37
2021/03/21 06:20:14;;;;;;;3.03;1.67;;;3.30;49.00;;;3.58;42.94;97995.31;5004805;28;20068;-37
2021/03/21 06:23:00;;;;;;;2.90;2.33;;;3.30;47.90;;;3.57;43.11;97993.63;5004661;28;20050;-37
2021/03/21 06:26:04;;;;;;;4.03;2.13;;;3.30;47.80;;;3.56;42.83;97998.03;5006203;28;20279;-38
2021/03/21 06:29:13;;;;;;;3.35;2.35;;;3.40;47.70;;;3.43;42.38;97991.97;5006203;28;20046;-37
2021/03/21 06:32:28;;;;;;;3.83;2.40;;;3.20;46.50;;;3.49;42.56;97995.03;4990758;28;20048;-37
2021/03/21 06:35:34;;;;;;;5.13;1.93;;;3.20;47.20;;;3.52;41.91;98002.69;4986526;28;20058;-38
2021/03/21 06:38:29;;;;;;;3.37;2.60;;;3.30;46.20;;;3.55;42.74;98006.91;4990577;28;20351;-37
2021/03/21 06:41:15;;;;;;;3.17;2.63;;;3.30;47.80;;;3.57;42.48;98007.66;5004552;28;20046;-38
2021/03/21 06:44:13;;;;;;;5.40;2.60;;;3.30;47.60;;;3.55;41.99;98010.38;5004640;28;20056;-37
2021/03/21 06:46:55;;;;;;;4.57;2.80;;;3.30;46.90;;;3.51;41.91;98006.28;5004585;28;20058;-37
2021/03/21 06:49:35;;;;;;;3.27;2.00;;;3.30;46.70;;;3.54;42.26;98000.78;5004864;28;20049;-38
2021/03/21 06:52:25;;;;;;;4.27;2.10;;;3.30;47.70;;;3.57;42.63;97994.47;5005510;28;20062;-37
2021/03/21 06:55:38;;;;;;;3.40;2.10;;;3.30;47.80;;;3.62;42.66;98002.03;4988245;28;20255;-37
2021/03/21 06:59:03;;;;;;;2.83;1.83;;;3.40;47.20;;;3.63;42.63;98004.56;4975324;28;20057;-37
2021/03/21 07:01:58;;;;;;;3.07;2.20;;;3.40;47.00;;;3.65;42.72;97992.13;4958671;28;20094;-37
2021/03/21 07:05:00;;;;;;;3.70;2.27;;;3.40;48.70;;;3.69;42.73;97998.03;5004576;28;20049;-37
2021/03/21 07:08:03;;;;;;;4.87;2.77;;;3.50;47.90;;;3.70;42.56;97991.78;5004384;28;20049;-37
2021/03/21 07:11:42;;;;;;;3.67;2.43;;;3.50;47.50;;;3.70;42.28;97994.44;5005563;28;20355;-37
2021/03/21 07:14:36;;;;;;;5.07;2.13;;;3.40;47.50;;;3.67;42.44;97990.22;4951553;28;20075;-37
2021/03/21 07:17:48;;;;;;;3.75;1.95;;;3.40;47.80;;;3.68;42.47;97989.28;5005354;28;20189;-38
2021/03/21 07:20:59;;;;;;;3.00;2.30;;;3.40;47.70;;;3.68;42.52;97984.03;5000775;28;20054;-37
2021/03/21 07:23:50;;;;;;;4.63;2.10;;;3.40;47.90;;;3.73;42.87;97978.41;5004228;28;20057;-37
2021/03/21 07:27:03;;;;;;;4.00;2.70;;;3.50;48.00;;;3.73;42.43;97983.69;5005721;28;20261;-37
2021/03/21 07:29:54;;;;;;;4.47;2.60;;;3.50;47.30;;;3.78;42.72;97980.72;5005374;28;20731;-37
2021/03/21 07:33:10;;;;;;;2.87;2.07;;;3.50;48.20;;;3.71;42.12;97991.69;4990554;28;20049;-37
2021/03/21 07:35:51;;;;;;;3.57;2.10;;;3.50;47.30;;;3.64;42.12;97992.25;4998930;28;20228;-37
2021/03/21 07:38:22;;;;;;;3.47;2.43;;;3.40;47.30;;;3.56;42.28;97992.78;4992858;28;20042;-37
2021/03/21 07:41:13;;;;;;;3.67;2.43;;;3.40;47.70;;;3.63;42.80;97986.13;5009061;28;20247;-37
2021/03/21 07:44:01;;;;;;;3.50;2.60;;;3.40;48.10;;;3.59;42.45;97981.19;4994349;28;20509;-37
2021/03/21 07:46:39;;;;;;;2.83;1.90;;;3.40;47.20;;;3.56;42.39;97982.25;5006666;28;20062;-37
2021/03/21 07:49:24;;;;;;;4.10;2.47;;;3.30;47.40;;;3.59;43.03;97994.34;4990941;28;20078;-38
2021/03/21 07:52:19;;;;;;;4.33;2.70;;;3.30;48.20;;;3.62;42.80;97979.19;5007327;28;20060;-37
2021/03/21 07:55:01;;;;;;;3.37;2.10;;;3.40;47.80;;;3.71;42.65;97981.16;5009411;28;20044;-37
2021/03/21 07:57:40;;;;;;;4.43;2.50;;;3.50;47.70;;;3.66;42.29;97977.16;5006429;28;20363;-37
2021/03/21 08:00:11;;;;;;;4.27;2.60;;;3.50;47.50;;;3.59;41.72;97975.91;5007887;28;20064;-37
2021/03/21 08:03:28;;;;;;;4.05;2.00;;;3.40;46.90;;;3.52;42.32;97971.09;5004889;28;20062;-37
2021/03/21 08:06:00;;;;;;;3.37;2.40;;;3.30;47.60;;;3.46;42.60;97965.44;4975097;28;20255;-37
2021/03/21 08:08:35;;;;;;;4.13;2.37;;;3.30;47.90;;;3.53;42.44;97969.31;5005860;28;20052;-37
2021/03/21 08:11:05;;;;;;;3.60;2.40;;;3.30;47.80;;;3.60;42.68;97972.34;4991263;28;20073;-37
2021/03/21 08:13:43;;;;;;;3.83;2.43;;;3.50;47.80;;;3.64;42.59;97953.56;4991741;28;20057;-37
2021/03/21 08:16:39;;;;;;;4.90;2.70;;;3.50;47.00;;;3.73;42.28;97954.72;5006573;28;20239;-37
2021/03/21 08:19:10;;;;;;;3.97;2.80;;;3.60;47.30;;;3.75;42.33;97958.09;5007176;28;20054;-37
2021/03/21 08:21:38;;;;;;;5.20;3.07;;;3.70;47.50;;;3.85;42.61;97940.66;4989566;28;20076;-37
2021/03/21 08:24:22;;;;;;;4.33;2.83;;;3.80;47.60;;;3.96;42.29;97921.44;5006209;28;20064;-37
2021/03/21 08:26:49;;;;;;;4.10;2.78;;;3.90;46.80;;;4.04;42.20;97918.25;4989043;28;20062;-37
2021/03/21 08:29:24;;;;;;;5.13;3.20;;;4.00;46.80;;;4.08;41.99;97904.72;5005154;28;20053;-37
2021/03/21 08:32:08;;;;;;;6.67;2.83;;;4.10;46.70;;;4.16;41.74;97892.78;4989745;28;20061;-37
2021/03/21 08:34:45;;;;;;;5.80;3.57;;;4.10;46.30;;;4.20;41.63;97902.13;5007468;28;20264;-38
2021/03/21 08:37:34;;;;;;;3.90;2.60;;;4.10;46.40;;;4.19;41.37;97897.78;5004282;28;20057;-38
2021/03/21 08:40:34;;;;;;;5.00;3.07;;;4.10;46.00;;;4.14;41.49;97908.69;5007286;28;20050;-38
2021/03/21 08:43:26;;;;;;;6.93;3.90;;;4.10;45.90;;;4.22;41.21;97914.22;5003363;28;20062;-38
2021/03/21 08:45:56;;;;;;;4.20;2.87;;;4.30;46.40;;;4.27;42.55;97912.09;4989662;28;20054;-37
2021/03/21 08:48:38;;;;;;;5.97;4.23;;;4.20;46.60;;;4.32;41.93;97907.31;5005622;28;20258;-37
2021/03/21 08:51:12;;;;;;;4.50;2.57;;;4.20;46.80;;;4.34;41.75;97913.31;4988284;28;20053;-37
2021/03/21 08:54:13;;;;;;;5.93;2.92;;;4.30;46.60;;;4.42;41.77;97903.97;5005929;28;20062;-37
2021/03/21 08:57:00;;;;;;;5.07;3.40;;;4.40;47.20;;;4.45;42.30;97911.66;5006159;28;20038;-38
2021/03/21 08:59:35;;;;;;;6.57;3.57;;;4.40;47.10;;;4.50;42.12;97909.53;5004632;28;20056;-37
2021/03/21 09:02:13;;;;;;;6.80;3.23;;;4.50;47.50;;;4.54;42.79;97919.72;5004756;28;20064;-37
2021/03/21 09:04:59;;;;;;;6.57;3.10;;;4.50;47.40;;;4.60;42.77;97921.03;4999888;28;20056;-37
2021/03/21 09:07:33;;;;;;;6.03;2.97;;;4.60;47.70;;;4.63;42.42;97910.25;4996454;28;20045;-37
2021/03/21 09:10:43;;;;;;;6.20;2.90;;;4.60;47.50;;;4.68;42.71;97913.38;5005128;28;20072;-38
2021/03/21 09:13:10;;;;;;;5.87;3.33;;;4.60;47.60;;;4.72;42.51;97919.25;5006406;28;20045;-37
2021/03/21 09:15:41;;;;;;;5.40;3.30;;;4.70;47.70;;;4.73;42.50;97923.59;5003084;28;20381;-37
2021/03/21 09:18:20;;;;;;;5.70;3.57;;;4.70;47.50;;;4.67;42.06;97929.31;5006327;28;20042;-38
2021/03/21 09:21:25;;;;;;;6.63;3.77;;;4.60;47.40;;;4.67;42.48;97924.91;5003932;28;20243;-38
2021/03/21 09:24:09;;;;;;;5.22;3.08;;;4.60;47.60;;;4.67;42.72;97929.31;5006388;28;20065;-38
2021/03/21 09:26:43;;;;;;;5.55;3.28;;;4.50;48.40;;;4.72;42.65;97929.81;5006169;28;20053;-38
2021/03/21 09:29:31;;;;;;;5.33;2.93;;;4.60;48.40;;;4.75;42.93;97934.88;5006633;28;20058;-37
2021/03/21 09:32:16;;;;;;;5.27;3.73;;;4.70;48.50;;;4.78;42.65;97931.16;5005954;28;20065;-38
2021/03/21 09:35:19;;;;;;;;;;;4.70;48.40;;;4.66;42.86;97944.31;4990731;28;20077;-37
2021/03/21 09:37:49;;;;;;;6.40;3.53;;;4.60;47.90;;;4.74;42.65;97951.63;4989175;28;19928;-37
2021/03/21 09:40:37;;;;;;;9.70;4.77;;;4.60;48.70;;;4.77;43.12;97948.78;5006281;28;20054;-37
2021/03/21 09:43:14;;;;;;;11.53;4.30;;;4.60;49.20;;;4.77;43.52;97948.78;5005702;28;20038;-37
2021/03/21 09:45:49;;;;;;;8.43;5.30;;;4.60;49.70;;;4.79;44.01;97952.13;5004641;28;20046;-37
2021/03/21 09:48:26;;;;;;;9.70;4.83;;;4.70;50.40;;;4.78;44.36;97946.97;5006340;28;20053;-37
2021/03/21 09:51:31;;;;;;;13.13;5.27;;;4.70;51.10;;;4.84;44.79;97952.59;5000853;28;20603;-37
2021/03/21 09:53:59;;;;;;;;;;;4.70;51.10;;;4.81;44.98;97970.47;5032924;28;20224;-36
2021/03/21 09:56:52;;;;;;;9.53;5.67;;;4.70;51.50;;;4.73;44.86;97963.16;5017068;28;19924;-37
2021/03/21 09:59:45;;;;;;;7.97;4.63;;;4.60;51.00;;;4.56;45.31;97968.88;4985750;28;20057;-37
2021/03/21 10:02:40;;;;;;;8.67;4.30;;;4.60;51.50;;;4.46;46.44;97977.47;5005362;28;20247;-36
2021/03/21 10:05:19;;;;;;;9.90;3.83;;;4.40;52.80;;;4.45;45.83;97964.38;5027911;28;20049;-36
2021/03/21 10:08:31;;;;;;;7.17;4.80;;;4.40;52.40;;;4.60;46.06;97965.03;5022040;28;20242;-40
2021/03/21 10:11:07;;;;;;;6.50;3.83;;;4.50;52.80;;;4.55;46.09;97965.38;5021411;28;20054;-37
2021/03/21 10:13:41;;;;;;;6.03;4.30;;;4.60;52.70;;;4.65;46.17;97958.47;5020623;28;20048;-37
2021/03/21 10:16:15;;;;;;;7.03;4.60;;;4.60;53.30;;;4.72;46.03;97954.38;4988777;28;20054;-37
2021/03/21 10:18:48;;;;;;;6.63;3.97;;;4.70;53.30;;;4.79;47.13;97969.75;5021426;28;20308;-37
2021/03/21 10:21:22;;;;;;;6.53;3.73;;;4.80;54.20;;;4.81;47.63;97967.81;5020779;28;20275;-37
2021/03/21 10:23:50;;;;;;;6.50;4.10;;;4.80;54.50;;;4.71;48.69;97959.78;5016425;28;20299;-37
2021/03/21 10:26:24;;;;;;;6.27;4.10;;;4.70;56.80;;;4.54;50.57;97948.72;5020236;28;20046;-37
2021/03/21 10:29:01;;;;;;;7.20;4.57;;;4.50;58.80;;;4.73;48.65;97958.72;5000410;28;20043;-37
2021/03/21 10:31:34;;;;;;;6.13;4.50;;;4.60;57.20;;;4.57;50.54;97949.44;5002556;28;20049;-37
2021/03/21 10:34:02;;;;;;;7.60;4.80;;;4.50;57.80;;;4.68;49.19;97947.66;5019258;28;20073;-37
2021/03/21 10:36:41;;;;;;;8.97;5.27;;;4.60;56.60;;;4.75;49.29;97945.41;5019678;28;20052;-37
2021/03/21 10:39:52;;;;;;;7.57;4.50;;;4.70;56.10;;;4.81;48.11;97939.66;5019687;28;20093;-37
2021/03/21 10:42:45;;;;;;;7.33;4.70;;;4.90;54.40;;;4.85;47.87;97941.09;5019414;28;20064;-37
2021/03/21 10:45:38;;;;;;;8.70;4.60;;;4.90;54.10;;;4.87;47.85;97939.19;5018803;28;20370;-37
2021/03/21 10:48:34;;;;;;;8.37;5.03;;;4.90;54.40;;;4.88;47.04;97932.09;5000290;28;20057;-37
2021/03/21 10:51:07;;;;;;;8.90;4.50;;;4.90;54.00;;;4.99;47.73;97928.66;5001668;28;20050;-37
2021/03/21 10:53:47;;;;;;;8.87;5.30;;;5.00;54.10;;;4.95;48.52;97924.56;4999847;28;20336;-37
2021/03/21 10:56:21;;;;;;;8.10;5.30;;;5.00;55.10;;;4.96;47.87;97919.16;4998609;28;20050;-37
2021/03/21 10:59:13;;;;;;;5.63;4.17;;;5.00;55.20;;;4.86;49.03;97923.47;4993804;28;20043;-37
2021/03/21 11:01:45;;;;;;;6.97;4.30;;;4.90;55.90;;;4.89;49.78;97913.53;4999836;28;20054;-37
2021/03/21 11:04:28;;;;;;;8.67;5.23;;;4.90;57.00;;;5.01;49.32;97905.63;4999836;28;20047;-37
2021/03/21 11:07:18;;;;;;;7.07;5.07;;;5.10;57.50;;;5.05;50.38;97910.53;4973337;28;20054;-37
2021/03/21 11:09:58;;;;;;;7.30;4.97;;;5.20;57.20;;;5.12;51.30;97905.63;5017509;28;20369;-37
2021/03/21 11:12:42;;;;;;;8.37;4.23;;;5.30;58.70;;;5.27;50.99;97900.91;5024944;28;20072;-37
2021/03/21 11:15:38;;;;;;;5.53;4.40;;;5.40;58.10;;;5.22;50.73;97903.94;5025168;28;20045;-37
2021/03/21 11:18:37;;;;;;;5.57;3.77;;;5.40;58.40;;;5.16;51.95;97904.41;5023657;28;20049;-37
2021/03/21 11:21:27;;;;;;;9.23;5.27;;;5.20;59.50;;;5.25;51.97;97898.41;5025145;28;20042;-36
2021/03/21 11:24:15;;;;;;;7.80;3.97;;;5.30;59.70;;;5.27;51.85;97903.56;5024910;28;20048;-37
2021/03/21 11:26:42;;;;;;;7.37;4.53;;;5.40;59.50;;;5.36;51.28;97902.84;5024815;28;20053;-37
2021/03/21 11:29:31;;;;;;;5.80;4.07;;;5.40;59.80;;;5.28;53.34;97898.16;5025207;28;20060;-37
2021/03/21 11:32:17;;;;;;;11.30;4.20;;;5.40;60.50;;;5.30;53.03;97893.59;5022606;28;20054;-38
2021/03/21 11:35:05;;;;;;;6.30;3.93;;;5.40;61.00;;;5.47;51.99;97894.06;5016974;28;20265;-38
2021/03/21 11:37:38;;;;;;;7.17;4.33;;;5.50;60.30;;;5.44;51.47;97895.13;5025120;28;20235;-38
2021/03/21 11:40:38;;;;;;;7.60;4.40;;;5.50;60.00;;;5.48;51.92;97895.72;5024936;28;20243;-38
2021/03/21 11:43:27;;;;;;;7.50;3.97;;;5.60;59.80;;;5.41;53.93;97903.31;5020149;28;20351;-38
2021/03/21 11:46:26;;;;;;;6.60;4.00;;;5.60;61.70;;;5.40;53.38;97908.72;5024741;28;20041;-38